Thursday, February 22, 2018, 12:11 PM EST
Back to Local

KROC, Greater Rochester International

Location: Rochester, NY, United States Lat: 43.117
Local Time: 12:11 PM EST (17:11 GMT) Lon: -77.683
Time Zone: US/Eastern Elev: 557 ft

Show me the last for .
Show Decoded

2018-02-22 11:54 METAR KROC 221654Z 00000KT 1 1/2SM R04/6000VP6000FT -SN BR OVC019 01/M01 A3066
                 RMK AO2 SLP392 P0000 T00061006 =
2018-02-22 11:07 METAR KROC 221607Z 16004KT 1 1/2SM -SN OVC018 01/M02 A3066 RMK AO2 VIS HYR W-NW
                 P0000 T00111017 =
2018-02-22 10:54 METAR KROC 221554Z 14003KT 9SM -SN OVC017 01/M02 A3065 RMK AO2 SNB47 SLP390
                 P0000 T00111022 =
2018-02-22 09:54 METAR KROC 221454Z 09006KT 10SM OVC017 01/M02 A3064 RMK AO2 SLP387 T00111022
                 50004 =
2018-02-22 08:54 METAR KROC 221354Z 10006KT 10SM OVC019 01/M03 A3066 RMK AO2 SLP392 T00111028 =
2018-02-22 07:54 METAR KROC 221254Z 06009KT 10SM BKN022 OVC080 01/M03 A3063 RMK AO2 SLP382 VIRGA
                 OHD E T00061033 =
2018-02-22 06:54 METAR KROC 221154Z 04007KT 10SM BKN020 OVC090 01/M04 A3063 RMK AO2 SLP383
                 T00061039 10006 20000 58002 =
2018-02-22 05:54 METAR KROC 221054Z 05006KT 10SM FEW015 OVC022 01/M02 A3063 RMK AO2 SLP382
                 T00061022 =
2018-02-22 04:54 METAR KROC 220954Z 34004KT 10SM BKN012 BKN021 OVC100 00/M02 A3064 RMK AO2 SLP386
                 T00001022 =
2018-02-22 04:27 METAR KROC 220927Z 35005KT 10SM BKN014 OVC100 00/M03 A3063 RMK AO2 T00001028 =
2018-02-22 03:54 METAR KROC 220854Z 35006KT 10SM BKN017 OVC100 00/M03 A3064 RMK AO2 SLP384
                 T00001028 58001 =
2018-02-22 02:54 METAR KROC 220754Z 36006KT 10SM FEW040 BKN110 OVC140 00/M02 A3065 RMK AO2 SLP388
                 T00001022 =
2018-02-22 01:54 METAR KROC 220654Z 34006KT 10SM FEW050 OVC110 00/M03 A3064 RMK AO2 SLP385
                 T00001028 =
2018-02-22 00:54 METAR KROC 220554Z 35008KT 10SM FEW120 OVC130 01/M03 A3064 RMK AO2 SLP385
                 T00061028 10033 20006 53017 =
2018-02-21 23:54 METAR KROC 220454Z 35006KT 10SM SCT150 BKN180 01/M03 A3062 RMK AO2 SLP378
                 T00061028 401940006 =
2018-02-21 22:54 METAR KROC 220354Z 34007KT 10SM BKN180 01/M03 A3060 RMK AO2 SLP372 T00111033 =
2018-02-21 21:54 METAR KROC 220254Z 31004KT 10SM CLR 01/M03 A3059 RMK AO2 SLP367 T00111033 53015
                 =
2018-02-21 20:54 METAR KROC 220154Z 29004KT 10SM BKN150 BKN180 02/M03 A3057 RMK AO2 SLP359
                 T00221033 =
2018-02-21 19:54 METAR KROC 220054Z 29007KT 10SM SCT100 SCT140 BKN180 02/M03 A3056 RMK AO2 SLP352
                 T00221028 =
2018-02-21 18:54 METAR KROC 212354Z 31006KT 10SM SCT075 BKN180 03/M03 A3055 RMK AO2 SLP351 60000
                 T00281028 10056 20028 51036 =
2018-02-21 17:54 METAR KROC 212254Z 31008KT 10SM OVC070 04/M03 A3052 RMK AO2 SLP343 T00391028 =
2018-02-21 16:54 METAR KROC 212154Z 32011KT 10SM FEW015 OVC065 05/M01 A3048 RMK AO2 SLP328
                 T00501006 =
2018-02-21 15:54 METAR KROC 212054Z 28010KT 10SM FEW014 SCT043 OVC050 05/01 A3044 RMK AO2
                 RAB24E34 SLP313 P0000 60000 T00500006 51041 =
2018-02-21 14:54 METAR KROC 211954Z 28012KT 10SM FEW018 OVC042 06/01 A3041 RMK AO2 RAB15E49
                 SLP303 P0000 T00560011 =
2018-02-21 13:54 METAR KROC 211854Z 30013KT 10SM FEW015 OVC034 06/02 A3036 RMK AO2 RAE48 SLP286
                 P0000 T00560017 =
2018-02-21 13:16 METAR KROC 211816Z 28012KT 10SM -RA FEW012 OVC030 06/03 A3034 RMK AO2 P0000
                 T00560033 =
2018-02-21 12:54 METAR KROC 211754Z 28009KT 10SM -RA FEW011 OVC028 06/03 A3032 RMK AO2 RAB1655
                 SLP271 P0000 60000 T00560033 10194 20044 51052 =

Support USWX by starting your Amazon purchase here.